Point Of Rocks, Wyoming
Current Conditions -  °F | °C
As of 2:54 AM on Saturday 25 Oct 2014 (Local Time) from KRKS Reporting Station
Clear Clear  
Wind Chill: 45°   Ceiling: Unl
Heat Index: 45°   Visibility: 10mi
Dew Point: 26°   Wind: 3mph
Humidity: 48%   Direction: 90°E
Pressure: 30.27"   Gusts: NA
Location:  41.68°N, 108.79°W
Report Text: KRKS 250854Z AUTO 09003KT 10SM CLR 07/M03 A3027 RMK AO2 SLP194 T00721033 58001 $
Loading
Personal Weather Stations






























Interactive Weather Map
Tropical Storm Tracking
New forecast layout! Learn more

10-Day Weather Forecast

Advertisements
Track Severe Weather on mobile